Terminal Aerodrome Forecast
Issued by NWS Charleston, WV

Home | Current Version | Previous Version | Text Only | Print | Product List | Glossary On
Versions: 1 2 3 4 5 6 7 8 9 10 11 12 13 14 15 16 17 18 19 20 21 22
000
FTUS41 KRLX 281121
TAFBKW
TAF
KBKW 281121Z 2812/2912 00000KT P6SM BKN040
      TEMPO 2812/2814 BKN015
     FM281800 00000KT P6SM VCTS BKN040CB
     FM290200 00000KT P6SM BKN040=

USA.gov is the U.S. government's official web portal to all federal, state and local government web resources and services.